KDCA

Ronald Reagan Washington National Airport

Washington, Virginia, USA
METAR KDCA 170552Z 22004KT 10SM OVC029 14/09 A3009 RMK AO2 SLP188 T01390094 10144 20133 56009
Observed Flight Rules
Oct-17 @ 05:52 UTC (12 minutes ago) Marginal Visual Flight Rules
Wind Visibility Clouds
220° at 4 knots 10 miles
  • Overcast at 2,900' AGL
Temperatures Readings
Current 14°C / 57°F
Dewpoint 9°C / 48°F
Humidity 72%
Altimeter 30.09" Hg
Pressure 1018.8 hPa
Elevation 18
METAR KDCA 170552Z 22004KT 10SM OVC029 14/09 A3009 RMK AO2 SLP188 T01390094 10144 20133 56009
Observed Flight Rules
Oct-17 @ 05:52 UTC
(12 minutes ago)
MVFR
Wind Visibility
220° at 4 knots 10 miles
Clouds
  • Overcast at 2,900' AGL
Temperature Dewpoint
14°C / 57°F 9°C / 48°F
Humidity Altimeter Pressure
72% 30.09" Hg 1018.8 hPa